Latest Weather Observations for Lajamanu

IDD60801

Issued at 10:31 am CST Tuesday 20 October 2020 (issued every 10 minutes, with the page automatically refreshed every 10 minutes)

About weather observations | Map of weather stations | Latest weather observations for NT | Other Formats
Station Details ID: 014829 Name: LAJAMANU AIRPORT Lat: -18.33 Lon: 130.64 Height: 315.6 m
Data from the previous 72 hours. | See also: Recent months at Lajamanu
Date/Time
CST
Temp
°C
App
Temp
°C
Dew
Point
°C
Rel
Hum
%
Delta-T
°C
Wind Press
QNH
hPa
Press
MSL
hPa
Rain since
9am
mm
Dir  Spd
km/h
Gust
km/h
Spd
kts
Gust
kts
20/10:30am 34.3 34.7 16.2 34 11.6 W 9 13 5 7 1011.8 1009.6 0.0
20/10:00am 34.2 33.8 16.1 34 11.6 WNW 13 19 7 10 1011.8 1009.6 0.0
20/09:30am 33.1 33.5 18.1 41 9.8 NW 13 22 7 12 1011.7 1009.5 0.0
20/09:00am 32.9 32.8 18.7 43 9.4 WNW 17 24 9 13 1011.5 1009.3 0.0
20/08:30am 31.0 30.8 18.4 47 8.2 WNW 17 26 9 14 1011.3 1009.1 0.0
20/08:00am 29.5 29.7 18.6 52 7.1 WNW 15 20 8 11 1011.1 1008.9 0.0
20/07:30am 27.9 29.1 19.1 58 5.8 WNW 11 17 6 9 1010.9 1008.7 0.0
20/07:00am 26.5 28.1 19.1 64 4.8 WNW 9 13 5 7 1010.7 1008.5 0.0
20/06:30am 25.9 27.6 19.3 67 4.3 WNW 9 13 5 7 1010.4 1008.2 0.0
20/06:00am 26.2 27.8 19.1 65 4.6 NW 9 13 5 7 1010.0 1007.8 0.0
20/05:30am 26.4 27.9 18.8 63 4.9 WNW 9 11 5 6 1009.9 1007.6 0.0
20/05:00am 27.6 28.7 18.9 59 5.7 WNW 11 20 6 11 1009.7 1007.4 0.0
20/04:30am 27.6 28.2 18.6 58 5.8 NW 13 17 7 9 1009.3 1007.1 0.0
20/04:00am 27.4 28.0 17.8 55 6.1 NW 11 13 6 7 1009.2 1007.0 0.0
20/03:30am 27.5 28.1 17.7 55 6.3 NW 11 15 6 8 1009.2 1007.0 0.0
20/03:00am 27.6 28.5 17.5 54 6.4 WNW 9 13 5 7 1009.0 1006.8 0.0
20/02:30am 27.8 28.1 17.0 51 6.9 NW 11 13 6 7 1009.1 1006.9 0.0
20/02:00am 27.8 28.1 17.0 51 6.8 NW 11 15 6 8 1009.1 1006.9 0.0
20/01:30am 28.2 29.3 17.1 51 7.1 WNW 7 7 4 4 1009.1 1006.9 0.0
20/01:00am 28.5 29.4 16.7 48 7.5 WNW 7 9 4 5 1009.3 1007.1 0.0
20/12:30am 28.6 29.8 16.8 48 7.5 WNW 6 7 3 4 1009.6 1007.3 0.0
20/12:00am 29.0 31.7 17.8 50 7.2 CALM 0 0 0 0 1009.7 1007.4 0.0
 
Date/Time
CST
Temp
°C
App
Temp
°C
Dew
Point
°C
Rel
Hum
%
Delta-T
°C
Wind Press
QNH
hPa
Press
MSL
hPa
Rain since
9am
mm
Dir  Spd
km/h
Gust
km/h
Spd
kts
Gust
kts
19/11:30pm 29.3 32.2 18.1 51 7.3 CALM 0 0 0 0 1009.9 1007.6 0.0
19/11:00pm 29.2 31.0 18.3 51 7.1 N 6 6 3 3 1010.0 1007.8 0.0
19/10:30pm 30.1 31.2 17.2 46 8.3 N 7 9 4 5 1010.1 1007.9 0.0
19/10:00pm 31.3 31.6 16.9 42 9.2 N 11 13 6 7 1010.0 1007.8 0.0
19/09:30pm 31.8 31.5 16.5 39 9.8 N 13 15 7 8 1009.7 1007.4 0.0
19/09:00pm 31.8 31.6 15.7 37 10.2 N 11 13 6 7 1009.5 1007.2 0.0
19/08:30pm 32.4 32.1 15.4 36 10.7 N 11 13 6 7 1009.1 1006.9 0.0
19/08:00pm 33.1 32.5 14.7 33 11.5 NNE 11 15 6 8 1008.7 1006.5 0.0
19/07:30pm 33.6 32.8 15.1 33 11.6 NNE 13 17 7 9 1008.4 1006.2 0.0
19/07:00pm 34.3 33.9 14.2 29 12.5 NNE 9 13 5 7 1008.2 1006.0 0.0
19/06:30pm 35.0 34.7 13.2 27 13.4 NNE 7 13 4 7 1008.1 1005.9 0.0
19/06:00pm 36.0 35.6 12.3 24 14.4 NE 6 9 3 5 1007.8 1005.6 0.0
19/05:30pm 35.9 35.0 11.5 23 14.7 N 7 11 4 6 1007.6 1005.4 0.0
19/05:00pm 36.2 35.6 12.4 24 14.5 NNW 7 13 4 7 1007.6 1005.4 0.0
19/04:30pm 36.4 35.9 13.8 26 14.1 NNE 9 17 5 9 1007.7 1005.5 0.0
19/04:00pm 35.5 34.9 13.6 26 13.6 NW 9 17 5 9 1007.8 1005.6 0.0
19/03:30pm 35.9 36.0 14.0 27 13.7 WSW 6 13 3 7 1008.1 1005.9 0.0
19/03:00pm 34.8 35.0 14.7 30 12.6 WSW 7 11 4 6 1008.4 1006.2 0.0
19/02:30pm 34.0 33.5 15.0 32 12.0 W 11 19 6 10 1008.9 1006.7 0.0
19/02:00pm 32.2 30.8 18.0 42 9.2 WSW 22 33 12 18 1009.7 1007.4 0.0
19/01:30pm 34.6 34.0 13.4 28 13.1 NNE 9 15 5 8 1010.0 1007.8 0.0
19/01:00pm 34.9 34.2 13.1 27 13.4 NW 9 15 5 8 1010.6 1008.4 0.0
19/12:30pm 34.6 34.3 14.5 30 12.6 ESE 9 11 5 6 1011.1 1008.9 0.0
19/12:00pm 34.4 34.8 15.3 31 12.1 SE 7 11 4 6 1011.3 1009.1 0.0
19/11:30am 32.9 32.8 15.0 34 11.2 ENE 9 13 5 7 1011.9 1009.7 0.0
19/11:00am 32.2 32.3 16.5 39 10.0 NNE 11 17 6 9 1012.5 1010.3 0.0
19/10:30am 31.1 31.3 16.7 42 9.2 NE 11 15 6 8 1012.9 1010.7 0.0
19/10:00am 31.0 31.3 18.0 45 8.4 ENE 13 17 7 9 1013.2 1011.0 0.0
19/09:30am 29.7 29.1 17.5 48 7.8 ESE 17 20 9 11 1013.3 1011.1 0.0
19/09:00am 29.2 28.8 18.0 51 7.2 ESE 17 24 9 13 1013.3 1011.1 4.0
19/08:30am 28.6 31.3 18.7 55 6.4 N 2 7 1 4 1012.9 1010.7 4.0
19/08:00am 27.9 30.1 19.7 61 5.4 N 7 9 4 5 1012.3 1010.1 4.0
19/07:30am 26.8 27.7 18.4 60 5.4 ENE 11 15 6 8 1012.0 1009.8 4.0
19/07:00am 26.4 26.6 19.3 65 4.6 SE 17 24 9 13 1011.8 1009.6 4.0
19/06:30am 26.0 27.8 19.6 68 4.2 NNW 9 13 5 7 1011.0 1008.8 4.0
19/06:00am 25.2 26.1 19.3 70 3.8 WNW 13 15 7 8 1010.5 1008.3 4.0
19/05:30am 26.5 28.7 18.4 61 5.2 WNW 4 11 2 6 1010.5 1008.3 2.6
19/05:00am 26.5 28.0 18.1 60 5.4 SSW 7 11 4 6 1010.1 1007.9 2.6
19/04:30am 26.9 27.5 17.7 57 5.9 SSW 11 15 6 8 1010.0 1007.8 2.6
19/04:00am 27.3 27.7 17.2 54 6.4 WSW 11 17 6 9 1009.5 1007.2 2.6
19/03:30am 27.8 26.8 17.6 53 6.5 N 19 24 10 13 1008.8 1006.6 2.6
19/03:00am 26.6 28.4 19.5 65 4.7 NW 9 9 5 5 1009.3 1007.1 2.6
19/02:30am 27.0 29.0 18.8 60 5.3 NW 6 7 3 4 1009.7 1007.4 2.6
19/02:00am 27.6 28.1 18.3 57 6.0 N 13 15 7 8 1009.7 1007.4 2.6
19/01:30am 27.5 28.1 18.5 58 5.8 N 13 15 7 8 1009.6 1007.3 2.6
19/01:00am 27.2 28.7 19.8 64 4.9 N 11 15 6 8 1010.0 1007.8 2.6
19/12:30am 27.1 29.1 20.0 65 4.7 NNW 9 13 5 7 1010.4 1008.2 2.6
19/12:00am 26.8 29.3 20.2 67 4.4 N 7 9 4 5 1010.6 1008.4 2.6
 
Date/Time
CST
Temp
°C
App
Temp
°C
Dew
Point
°C
Rel
Hum
%
Delta-T
°C
Wind Press
QNH
hPa
Press
MSL
hPa
Rain since
9am
mm
Dir  Spd
km/h
Gust
km/h
Spd
kts
Gust
kts
18/11:30pm 26.7 29.9 19.8 66 4.5 NW 2 7 1 4 1010.7 1008.5 2.6
18/11:00pm 27.8 29.8 19.1 59 5.7 NNE 7 9 4 5 1010.8 1008.6 2.6
18/10:30pm 27.4 29.8 20.0 64 4.9 ENE 7 9 4 5 1010.8 1008.6 2.6
18/10:00pm 27.6 31.3 19.9 63 5.1 CALM 0 7 0 4 1010.8 1008.6 2.6
18/09:30pm 27.5 30.9 19.3 61 5.4 CALM 0 0 0 0 1011.0 1008.8 2.6
18/09:00pm 28.3 30.3 19.2 57 6.0 NE 7 13 4 7 1010.9 1008.7 2.6
18/08:30pm 28.4 29.6 19.1 57 6.1 N 11 13 6 7 1010.8 1008.6 2.6
18/08:00pm 28.9 30.0 18.9 54 6.5 NE 11 15 6 8 1010.6 1008.4 2.6
18/07:30pm 29.6 30.5 19.3 54 6.8 NNE 13 17 7 9 1010.3 1008.1 2.6
18/07:00pm 30.0 31.0 19.4 53 7.0 NNE 13 17 7 9 1009.9 1007.6 2.6
18/06:30pm 30.9 34.0 18.6 48 8.1 CALM 0 0 0 0 1009.5 1007.2 2.6
18/06:00pm 31.4 32.8 17.7 44 8.9 N 7 9 4 5 1009.1 1006.9 2.6
18/05:30pm 31.6 31.9 17.1 41 9.3 NNW 11 15 6 8 1008.9 1006.7 2.6
18/05:00pm 31.3 30.6 16.5 41 9.4 NNW 15 22 8 12 1008.9 1006.7 2.6
18/04:30pm 30.2 29.5 18.3 49 7.8 NW 19 26 10 14 1009.0 1006.8 2.6
18/04:00pm 30.4 29.2 17.1 44 8.5 NW 19 28 10 15 1009.5 1007.2 2.6
18/03:30pm 31.1 30.0 17.4 44 8.8 NW 19 30 10 16 1009.3 1007.1 2.4
18/03:00pm 31.7 31.4 16.4 39 9.7 N 13 19 7 10 1009.5 1007.2 2.4
18/02:30pm 31.4 30.9 15.8 39 9.8 NNE 13 19 7 10 1009.7 1007.4 2.4
18/02:00pm 30.2 29.7 15.9 42 9.0 N 13 19 7 10 1010.0 1007.8 2.4
18/01:30pm 29.1 28.1 16.6 46 7.9 NNW 17 26 9 14 1010.5 1008.3 2.4
18/01:00pm 25.6 22.7 18.8 66 4.4 NNE 32 50 17 27 1011.4 1009.2 2.4
18/12:50pm 26.2 22.0 18.1 61 5.2 NE 37 57 20 31 1011.6 1009.4 2.4
18/12:40pm 26.5 27.1 20.3 68 4.1 WNW 17 59 9 32 1011.8 1009.6 2.2
18/12:30pm 26.9 28.3 20.3 67 4.4 WSW 13 20 7 11 1011.6 1009.4 2.2
18/12:00pm 29.7 26.7 16.8 45 8.2 SW 28 39 15 21 1011.5 1009.3 0.0
18/11:56am 30.4 27.4 14.9 39 9.6 SSW 24 39 13 21 1011.5 1009.3 0.0
18/11:30am 35.5 34.5 14.7 28 13.1 NW 13 26 7 14 1011.6 1009.4 0.0
18/11:00am 34.0 32.8 15.0 32 11.9 NNE 15 22 8 12 1011.9 1009.7 0.0
18/10:30am 33.7 32.7 14.7 32 11.9 NNW 13 22 7 12 1012.3 1010.1 0.0
18/10:00am 33.6 33.5 16.0 34 11.2 N 11 19 6 10 1012.4 1010.2 0.0
18/09:30am 33.1 32.6 16.0 35 10.9 NW 13 19 7 10 1012.5 1010.3 0.0
18/09:00am 32.7 32.0 16.5 37 10.4 NNW 15 20 8 11 1012.8 1010.5 0.4
18/08:30am 31.3 30.5 16.1 40 9.6 WNW 15 24 8 13 1012.2 1010.0 0.4
18/08:00am 29.7 29.5 16.8 45 8.2 WNW 13 20 7 11 1012.0 1009.8 0.4
18/07:30am 27.9 29.4 18.0 55 6.4 NW 7 11 4 6 1011.5 1009.3 0.4
18/07:00am 27.2 28.4 18.2 58 5.8 NNW 9 13 5 7 1011.0 1008.8 0.4
18/06:30am 26.4 27.5 18.0 60 5.4 NNW 9 11 5 6 1010.5 1008.3 0.4
18/06:00am 26.4 27.8 17.7 58 5.5 NW 7 7 4 4 1010.2 1008.0 0.4
18/05:30am 26.4 27.4 17.7 58 5.5 NW 9 11 5 6 1009.8 1007.5 0.4
18/05:00am 26.0 27.2 17.4 59 5.4 WNW 7 11 4 6 1009.5 1007.2 0.4
18/04:30am 26.0 26.7 17.1 58 5.6 WNW 9 11 5 6 1008.8 1006.6 0.4
18/04:00am 26.5 26.8 17.0 56 6.0 NW 11 15 6 8 1008.6 1006.4 0.4
18/03:30am 27.0 27.4 17.2 55 6.2 NNW 11 15 6 8 1008.4 1006.2 0.4
18/03:00am 27.3 27.6 16.9 53 6.6 NNW 11 15 6 8 1008.5 1006.3 0.4
18/02:30am 27.6 27.7 16.6 51 6.9 NNW 11 15 6 8 1008.6 1006.4 0.4
18/02:00am 28.2 27.7 15.8 47 7.7 NW 13 19 7 10 1008.9 1006.7 0.4
18/01:30am 29.0 26.9 15.2 43 8.6 NNW 20 26 11 14 1009.2 1007.0 0.4
18/01:00am 29.0 26.8 14.8 42 8.7 NNW 20 32 11 17 1009.5 1007.2 0.4
18/12:30am 30.0 27.0 12.4 34 10.5 NNW 20 35 11 19 1009.7 1007.4 0.4
18/12:00am 30.2 28.1 13.5 36 10.1 N 17 26 9 14 1010.0 1007.8 0.4
 
Date/Time
CST
Temp
°C
App
Temp
°C
Dew
Point
°C
Rel
Hum
%
Delta-T
°C
Wind Press
QNH
hPa
Press
MSL
hPa
Rain since
9am
mm
Dir  Spd
km/h
Gust
km/h
Spd
kts
Gust
kts
17/11:30pm 29.8 29.4 12.3 34 10.4 SSE 6 9 3 5 1010.2 1008.0 0.4
17/11:00pm 30.4 30.9 12.8 34 10.6 SSE 2 7 1 4 1010.7 1008.5 0.4
17/10:30pm 30.3 29.8 12.7 34 10.5 ESE 7 9 4 5 1010.6 1008.4 0.4
17/10:00pm 30.5 28.8 13.7 35 10.2 E 15 20 8 11 1010.3 1008.1 0.4
17/09:30pm 30.6 31.5 13.0 34 10.6 CALM 0 0 0 0 1009.5 1007.2 0.4
17/09:00pm 31.2 31.0 13.0 33 11.0 NNW 6 9 3 5 1009.0 1006.8 0.4
17/08:30pm 31.9 31.6 13.2 32 11.4 NNW 7 13 4 7 1008.9 1006.7 0.4
17/08:00pm 32.5 32.0 12.7 30 12.0 NW 7 11 4 6 1008.8 1006.6 0.4
17/07:30pm 33.3 32.3 12.3 28 12.7 NNW 9 13 5 7 1008.3 1006.1 0.4
17/07:00pm 33.3 32.5 12.9 29 12.4 NW 9 13 5 7 1008.1 1005.9 0.4
17/06:30pm 34.3 34.7 11.4 25 13.7 CALM 0 0 0 0 1007.6 1005.4 0.4
17/06:00pm 34.3 33.6 11.4 25 13.7 S 6 7 3 4 1007.6 1005.4 0.4
17/05:30pm 34.5 33.7 11.0 24 14.0 SSE 6 9 3 5 1007.4 1005.2 0.4
17/05:00pm 34.9 35.1 12.0 25 13.8 WSW 2 7 1 4 1007.5 1005.3 0.4
17/04:30pm 33.9 34.0 14.4 31 12.2 WNW 7 13 4 7 1007.4 1005.2 0.2
17/04:00pm 29.2 28.4 16.0 44 8.3 WNW 15 43 8 23 1007.9 1005.7 0.2
17/03:51pm 29.5 25.6 12.0 34 10.3 WSW 24 48 13 26 1008.0 1005.8 0.0
17/03:50pm 29.4 25.7 11.5 33 10.5 WSW 22 48 12 26 1007.9 1005.7 0.0
17/03:30pm 34.8 31.1 9.3 21 14.8 S 19 35 10 19 1006.9 1004.6 0.0
17/03:00pm 37.0 33.9 8.8 18 16.4 N 15 24 8 13 1006.8 1004.5 0.0
17/02:30pm 37.8 33.7 8.6 17 17.0 NNE 20 30 11 16 1006.9 1004.6 0.0
17/02:00pm 38.5 34.5 9.1 17 17.2 NNE 20 35 11 19 1007.3 1005.1 0.0
17/01:30pm 38.2 35.6 12.0 21 16.0 N 17 28 9 15 1008.0 1005.8 0.0
17/01:00pm 37.2 33.4 11.2 21 15.6 NNE 22 35 12 19 1008.6 1006.4 0.0
17/12:30pm 36.1 32.6 12.3 24 14.5 N 22 37 12 20 1009.1 1006.9 0.0
17/12:00pm 36.0 33.5 14.1 27 13.7 N 20 30 11 16 1009.6 1007.3 0.0
17/11:30am 35.8 32.7 14.4 27 13.4 N 24 33 13 18 1010.0 1007.8 0.0
17/11:00am 35.5 32.7 14.2 28 13.3 N 22 33 12 18 1010.2 1008.0 0.0

Other formats

Comma delimited format used in spreadsheet applications
http://www.bom.gov.au/fwo/IDD60801/IDD60801.94231.axf

JavaScript Object Notation format (JSON) in row-major order
http://www.bom.gov.au/fwo/IDD60801/IDD60801.94231.json

Data quality

Most of these data are generated automatically and are frequently updated. Quality checks on data are not normally performed. It is possible for incorrect values to appear. Refer to information at About Latest Weather Observations and please check the disclaimer before using these data.